Flight Track Log - Related Links

Times and Time Zones

All times are in EDT time to prevent confusion due to time zone crossing. See the CHH7104 flight status page for this flight to view local times or setup timezone preferences in your user account.

Time Position Orientation Groundspeed Altitude Reporting Facility
EDT Latitude Longitude Course Direction KTS MPH feet Rate Location/Type
Thu 03:04:00 AM 43.8453 127.1290 250° West  Level Estimated
Thu 03:05:00 AM 43.8081 127.0021 248° West  Level Estimated
Thu 03:06:00 AM 43.7708 126.8754 248° West  Level Estimated
Thu 03:07:00 AM 43.7334 126.7489 248° West  Level Estimated
Thu 03:08:00 AM 43.6958 126.6225 248° West  Level Estimated
Thu 03:09:00 AM 43.6581 126.4963 248° West  Level Estimated
Thu 03:10:00 AM 43.6203 126.3702 248° West  Level Estimated
Thu 03:11:00 AM 43.5823 126.2443 247° West  Level Estimated
Thu 03:12:00 AM 43.5442 126.1186 247° West  Level Estimated
Thu 03:13:00 AM 43.5059 125.9930 247° West  Level Estimated
Thu 03:14:00 AM 43.4675 125.8676 247° West  Level Estimated
Thu 03:15:00 AM 43.4290 125.7423 247° West  Level Estimated
Thu 03:16:00 AM 43.3903 125.6172 247° West  Level Estimated
Thu 03:17:00 AM 43.3515 125.4922 247° West  Level Estimated
Thu 03:18:00 AM 43.3125 125.3675 247° West  Level Estimated
Thu 03:19:00 AM 43.2734 125.2428 247° West  Level Estimated
Thu 03:20:00 AM 43.2342 125.1184 247° West  Level Estimated
Thu 03:21:00 AM 43.1949 124.9941 247° West  Level Estimated
Thu 03:22:00 AM 43.1554 124.8699 246° West  Level Estimated
Thu 03:23:00 AM 43.1158 124.7459 246° West  Level Estimated
Thu 03:24:00 AM 43.0760 124.6221 246° West  Level Estimated
Thu 03:25:00 AM 43.0361 124.4984 246° West  Level Estimated
Thu 03:26:00 AM 42.9961 124.3749 246° West  Level Estimated
Thu 03:27:00 AM 42.9560 124.2516 246° West  Level Estimated
Thu 03:28:00 AM 42.9157 124.1284 246° West  Level Estimated
Thu 03:29:00 AM 42.8753 124.0054 246° West  Level Estimated
Thu 03:30:00 AM 42.8347 123.8825 246° West  Level Estimated
Thu 03:31:00 AM 42.7940 123.7598 246° West  Level Estimated
Thu 03:32:00 AM 42.7532 123.6373 246° West  Level Estimated
Thu 03:33:00 AM 42.7123 123.5149 246° West  Level Estimated
Thu 03:34:00 AM 42.6712 123.3927 245° Southwest  Level Estimated
Thu 03:35:00 AM 42.6300 123.2707 245° Southwest  Level Estimated
Thu 03:36:00 AM 42.5887 123.1488 245° Southwest  Level Estimated
Thu 03:37:00 AM 42.5472 123.0270 245° Southwest  Level Estimated
Thu 03:38:00 AM 42.5056 122.9055 245° Southwest  Level Estimated
Thu 03:39:00 AM 42.4639 122.7841 245° Southwest  Level Estimated
Thu 03:40:00 AM 42.4221 122.6628 245° Southwest  Level Estimated
Thu 03:41:00 AM 42.3801 122.5418 245° Southwest  Level Estimated
Thu 03:42:00 AM 42.3380 122.4208 245° Southwest  Level Estimated
Thu 03:43:00 AM 42.2958 122.3001 245° Southwest  Level Estimated
Thu 03:44:00 AM 42.2534 122.1795 245° Southwest  Level Estimated
Thu 03:45:00 AM 42.2109 122.0591 245° Southwest  Level Estimated
Thu 03:46:00 AM 42.1683 121.9388 244° Southwest  Level Estimated
Thu 03:47:00 AM 42.1256 121.8187 244° Southwest  Level Estimated
Thu 03:48:00 AM 42.0828 121.6987 244° Southwest  Level Estimated
Thu 03:49:00 AM 42.0398 121.5789 244° Southwest  Level Estimated
Thu 03:50:00 AM 41.9967 121.4593 244° Southwest  Level Estimated
Thu 03:51:00 AM 41.9534 121.3399 244° Southwest  Level Estimated
Thu 03:52:00 AM 41.9101 121.2206 244° Southwest  Level Estimated
Thu 03:53:00 AM 41.8666 121.1014 244° Southwest  Level Estimated
Thu 03:54:00 AM 41.8230 120.9825 244° Southwest  Level Estimated
Thu 03:55:00 AM 41.7793 120.8637 244° Southwest  Level Estimated
Thu 03:56:00 AM 41.7355 120.7450 244° Southwest  Level Estimated
Thu 03:57:00 AM 41.6915 120.6265 244° Southwest  Level Estimated
Thu 03:58:00 AM 41.6474 120.5082 244° Southwest  Level Estimated
Thu 03:59:00 AM 41.6032 120.3900 243° Southwest  Level Estimated
Thu 04:00:00 AM 41.5589 120.2720 243° Southwest  Level Estimated
Thu 04:01:00 AM 41.5144 120.1542 243° Southwest  Level Estimated
Thu 04:02:00 AM 41.4699 120.0365 243° Southwest  Level Estimated
Thu 04:03:00 AM 41.4252 119.9190 243° Southwest  Level Estimated
Thu 04:04:00 AM 41.3804 119.8017 243° Southwest  Level Estimated
Thu 04:05:00 AM 41.3354 119.6845 243° Southwest  Level Estimated
Thu 04:06:00 AM 41.2904 119.5674 243° Southwest  Level Estimated
Thu 04:07:00 AM 41.2452 119.4506 243° Southwest  Level Estimated
Thu 04:08:00 AM 41.2000 119.3339 243° Southwest  Level Estimated
Thu 04:09:00 AM 41.1545 119.2173 243° Southwest  Level Estimated
Thu 04:10:00 AM 41.1090 119.1009 243° Southwest  Level Estimated
Thu 04:11:00 AM 41.0634 118.9847 243° Southwest  Level Estimated
Thu 04:12:00 AM 41.0177 118.8687 242° Southwest  Level Estimated
Thu 04:13:00 AM 40.9718 118.7528 242° Southwest  Level Estimated
Thu 04:14:00 AM 40.9258 118.6370 242° Southwest  Level Estimated
Thu 04:15:00 AM 40.8797 118.5214 242° Southwest  Level Estimated
Thu 04:16:00 AM 40.8335 118.4060 242° Southwest  Level Estimated
Thu 04:17:00 AM 40.7872 118.2908 242° Southwest  Level Estimated
Thu 04:18:00 AM 40.7407 118.1757 242° Southwest  Level Estimated
Thu 04:19:00 AM 40.6942 118.0608 242° Southwest  Level Estimated
Thu 04:20:00 AM 40.6475 117.9460 242° Southwest  Level Estimated
Thu 04:21:00 AM 40.6007 117.8314 242° Southwest  Level Estimated
Thu 04:22:00 AM 40.5538 117.7169 242° Southwest  Level Estimated
Thu 04:23:00 AM 40.5068 117.6026 242° Southwest  Level Estimated
Thu 04:24:00 AM 40.4597 117.4885 242° Southwest  Level Estimated
Thu 04:25:00 AM 40.4124 117.3745 241° Southwest  Level Estimated
Thu 04:26:00 AM 40.3651 117.2607 241° Southwest  Level Estimated
Thu 04:27:00 AM 40.3176 117.1471 241° Southwest  Level Estimated
Thu 04:28:00 AM 40.2701 117.0336 241° Southwest  Level Estimated
Thu 04:29:00 AM 40.2224 116.9203 241° Southwest  Level Estimated
Thu 04:30:00 AM 40.1746 116.8071 241° Southwest  Level Estimated
Thu 04:31:00 AM 40.1267 116.6941 241° Southwest  Level Estimated
Thu 04:32:00 AM 40.0801 116.5846 241° Southwest  Level Estimated
Thu 04:33:00 AM 40.0801 116.5846 North  Level Estimated
Thu 04:34:00 AM 40.0801 116.5846 North  Level Estimated
Thu 04:35:00 AM 40.0801 116.5846 North  Level Estimated
Thu 04:36:00 AM 40.0801 116.5846 North  Level Estimated
Thu 04:37:00 AM 40.0801 116.5846 North  Level Estimated
Thu 04:38:00 AM 40.0801 116.5846 North  Level Estimated
Thu 04:39:00 AM 40.0801 116.5846 North  Level Estimated
Thu 04:40:00 AM 40.0801 116.5846 North  Level Estimated
Thu 04:41:00 AM 40.0801 116.5846 North  Level Estimated
Thu 04:42:00 AM 40.0801 116.5846 North  Level Estimated
Thu 04:43:00 AM 40.0801 116.5846 North  Level Estimated
Thu 04:44:00 AM 40.0801 116.5846 North  Level Estimated
Thu 04:45:00 AM 40.0801 116.5846 North  Level Estimated
Thu 04:46:00 AM 40.0801 116.5846 North  Level Estimated
Thu 04:47:00 AM 40.0801 116.5846 North  Level Estimated
Thu 04:48:00 AM 40.0801 116.5846 North  Level Estimated

Login

Don't have an account? Register now (free) for customized features, flight alerts, and more!